createdAt,value
2022-10-25T00:00:43.804Z,4.80
2022-10-25T00:03:13.897Z,3.67
2022-10-25T00:05:43.473Z,5.03
2022-10-25T00:08:12.495Z,4.05
2022-10-25T00:10:41.964Z,3.80
2022-10-25T00:13:12.775Z,2.42
2022-10-25T00:15:41.858Z,4.28
2022-10-25T00:18:11.079Z,5.32
2022-10-25T00:20:40.248Z,1.60
2022-10-25T00:23:09.244Z,3.67
2022-10-25T00:25:38.455Z,2.38
2022-10-25T00:28:07.711Z,3.38
2022-10-25T00:30:39.069Z,3.38
2022-10-25T00:33:08.115Z,2.65
2022-10-25T00:35:37.538Z,3.33
2022-10-25T00:38:06.612Z,3.33
2022-10-25T00:40:35.643Z,2.58
2022-10-25T00:43:04.663Z,3.05
2022-10-25T00:45:33.995Z,1.42
2022-10-25T00:48:07.854Z,4.90
2022-10-25T00:50:46.511Z,1.92
2022-10-25T00:53:20.082Z,3.85
2022-10-25T00:55:54.963Z,3.80
2022-10-25T00:58:27.630Z,6.13
2022-10-25T01:00:56.997Z,3.58
2022-10-25T01:03:27.814Z,3.30
2022-10-25T01:05:59.554Z,4.35
2022-10-25T01:08:28.667Z,3.72
2022-10-25T01:10:57.753Z,3.10
2022-10-25T01:13:26.835Z,3.92
2022-10-25T01:16:07.301Z,4.55
2022-10-25T01:18:44.880Z,3.05
2022-10-25T01:21:45.744Z,4.65
2022-10-25T01:24:57.171Z,2.17
2022-10-25T01:27:48.071Z,1.08
2022-10-25T01:30:21.423Z,3.03
2022-10-25T01:33:02.687Z,2.80
2022-10-25T01:35:35.260Z,5.03
2022-10-25T01:38:16.977Z,5.82
2022-10-25T01:40:53.608Z,3.65
2022-10-25T01:43:32.115Z,5.90
2022-10-25T01:46:09.806Z,4.85
2022-10-25T01:48:46.553Z,4.95
2022-10-25T01:51:18.943Z,4.78
2022-10-25T01:53:50.970Z,3.70
2022-10-25T01:56:26.233Z,4.80
2022-10-25T01:59:14.594Z,2.95
2022-10-25T02:01:55.021Z,2.72
2022-10-25T02:04:36.451Z,3.45
2022-10-25T02:09:44.765Z,5.05
2022-10-25T02:12:20.704Z,6.47
2022-10-25T02:14:57.097Z,2.08
2022-10-25T02:17:28.769Z,5.63
2022-10-25T02:20:02.384Z,3.80
2022-10-25T02:22:35.413Z,2.95
2022-10-25T02:25:05.481Z,2.67
2022-10-25T02:27:36.210Z,4.93
2022-10-25T02:30:06.500Z,4.18
2022-10-25T02:32:35.551Z,4.47
2022-10-25T02:35:07.217Z,4.00
2022-10-25T02:37:36.207Z,3.60
2022-10-25T02:40:05.584Z,4.20
2022-10-25T02:42:34.570Z,3.80
2022-10-25T02:45:03.614Z,5.22
2022-10-25T02:47:32.625Z,9.18
2022-10-25T02:50:01.686Z,3.20
2022-10-25T02:52:34.912Z,3.40
2022-10-25T02:55:03.932Z,2.75
2022-10-25T02:57:34.980Z,2.65
2022-10-25T03:00:05.553Z,5.68
2022-10-25T03:02:34.877Z,3.42
2022-10-25T03:05:03.884Z,6.65
2022-10-25T03:07:34.322Z,5.25
2022-10-25T03:10:03.324Z,4.83
2022-10-25T03:12:32.328Z,2.63
2022-10-25T03:15:01.331Z,2.63
2022-10-25T03:17:30.327Z,4.80
2022-10-25T03:19:59.289Z,3.28
2022-10-25T03:22:28.429Z,3.30
2022-10-25T03:24:58.921Z,3.22
2022-10-25T03:27:28.404Z,5.43
2022-10-25T03:29:57.390Z,3.95
2022-10-25T03:32:26.367Z,4.97
2022-10-25T03:34:56.466Z,2.63
2022-10-25T03:37:25.507Z,4.10
2022-10-25T03:39:54.719Z,4.15
2022-10-25T03:42:25.157Z,2.08
2022-10-25T03:44:54.443Z,8.33
2022-10-25T03:47:23.427Z,2.50
2022-10-25T03:49:52.420Z,4.22
2022-10-25T03:52:21.398Z,6.82
2022-10-25T03:54:50.430Z,3.83
2022-10-25T03:57:19.468Z,3.65
2022-10-25T03:59:49.905Z,7.57
2022-10-25T04:02:19.063Z,4.00
2022-10-25T04:04:48.028Z,2.47
2022-10-25T04:07:17.122Z,3.80
2022-10-25T04:09:48.861Z,4.80
2022-10-25T04:12:17.820Z,4.47
2022-10-25T04:14:46.801Z,3.25
2022-10-25T04:17:17.240Z,6.50
2022-10-25T04:19:46.226Z,5.63
2022-10-25T04:22:15.386Z,1.73
2022-10-25T04:24:46.813Z,3.33
2022-10-25T04:27:15.877Z,3.50
2022-10-25T04:29:44.796Z,3.70
2022-10-25T04:32:13.964Z,3.40
2022-10-25T04:34:44.472Z,8.73
2022-10-25T04:37:13.438Z,2.10
2022-10-25T04:39:42.411Z,7.70
2022-10-25T04:42:11.374Z,6.20
2022-10-25T04:44:40.356Z,3.30
2022-10-25T04:47:09.359Z,5.00
2022-10-25T04:49:38.461Z,3.78
2022-10-25T04:52:08.935Z,3.80
2022-10-25T04:54:37.876Z,4.30
2022-10-25T04:57:07.299Z,6.53
2022-10-25T04:59:36.357Z,4.88
2022-10-25T05:02:05.639Z,5.40
2022-10-25T05:04:34.630Z,7.15
2022-10-25T05:07:03.698Z,8.15
2022-10-25T05:09:34.166Z,6.15
2022-10-25T05:12:03.301Z,5.10
2022-10-25T05:14:32.372Z,8.68
2022-10-25T05:17:01.501Z,6.63
2022-10-25T05:19:31.138Z,8.13
2022-10-25T05:22:00.280Z,7.38
2022-10-25T05:24:29.298Z,9.15
2022-10-25T05:26:59.681Z,5.43
2022-10-25T05:29:28.702Z,5.00
2022-10-25T05:31:57.667Z,5.15
2022-10-25T05:34:27.402Z,5.63
2022-10-25T05:36:56.416Z,3.03
2022-10-25T05:39:25.605Z,8.45
2022-10-25T05:41:54.724Z,6.68
2022-10-25T05:44:25.086Z,9.27
2022-10-25T05:46:55.310Z,6.60
2022-10-25T05:49:24.307Z,2.60
2022-10-25T05:51:53.270Z,7.00
2022-10-25T05:54:23.498Z,6.55
2022-10-25T05:56:52.570Z,5.32
2022-10-25T05:59:21.666Z,5.07
2022-10-25T06:01:52.087Z,8.68
2022-10-25T06:04:21.182Z,7.05
2022-10-25T06:06:52.183Z,4.55
2022-10-25T06:09:21.303Z,4.07
2022-10-25T06:11:50.453Z,7.18
2022-10-25T06:14:19.410Z,4.82
2022-10-25T06:16:48.772Z,7.05
2022-10-25T06:19:22.019Z,8.13
2022-10-25T06:21:51.018Z,8.93
2022-10-25T06:24:20.049Z,5.90
2022-10-25T06:26:49.009Z,9.07
2022-10-25T06:29:18.195Z,4.80
2022-10-25T06:31:47.313Z,6.35
2022-10-25T06:34:16.284Z,6.25
2022-10-25T06:36:46.639Z,5.90
2022-10-25T06:39:15.658Z,6.90
2022-10-25T06:41:44.613Z,4.45
2022-10-25T06:44:13.591Z,7.40
2022-10-25T06:47:15.414Z,7.53
2022-10-25T06:49:33.902Z,7.53
2022-10-25T06:52:04.382Z,7.00
2022-10-25T06:54:33.478Z,8.43
2022-10-25T06:57:02.587Z,8.65
2022-10-25T06:59:31.803Z,5.40
2022-10-25T07:02:00.854Z,4.47
2022-10-25T07:04:32.522Z,5.97
2022-10-25T07:07:01.617Z,7.53
2022-10-25T07:09:32.014Z,9.38
2022-10-25T07:12:01.031Z,10.75
2022-10-25T07:14:30.050Z,8.30
2022-10-25T07:16:59.078Z,7.22
2022-10-25T07:19:28.117Z,10.27
2022-10-25T07:21:57.100Z,12.35
2022-10-25T07:24:26.097Z,8.20
2022-10-25T07:26:56.520Z,5.18
2022-10-25T07:29:25.583Z,10.00
2022-10-25T07:31:54.757Z,8.65
2022-10-25T07:34:24.056Z,8.18
2022-10-25T07:36:53.130Z,9.65
2022-10-25T07:39:22.141Z,10.30
2022-10-25T07:41:51.166Z,10.20
2022-10-25T07:44:24.859Z,11.15
2022-10-25T07:46:55.599Z,7.20
2022-10-25T07:49:24.676Z,12.37
2022-10-25T07:51:53.637Z,8.52
2022-10-25T07:54:22.614Z,6.45
2022-10-25T07:56:51.622Z,7.57
2022-10-25T07:59:21.991Z,12.90
2022-10-25T08:01:51.109Z,8.60
2022-10-25T08:04:20.286Z,11.73
2022-10-25T08:06:49.275Z,8.02
2022-10-25T08:09:36.941Z,11.68
2022-10-25T08:12:07.047Z,7.35
2022-10-25T08:14:40.735Z,9.52
2022-10-25T08:17:11.391Z,10.55
2022-10-25T08:19:40.494Z,10.48
2022-10-25T08:22:10.621Z,9.75
2022-10-25T08:24:40.291Z,9.45
2022-10-25T08:27:09.349Z,13.15
2022-10-25T08:29:39.710Z,10.00
2022-10-25T08:32:08.803Z,9.13
2022-10-25T08:34:37.837Z,13.10
2022-10-25T08:37:06.941Z,12.93
2022-10-25T08:39:35.924Z,13.27
2022-10-25T08:42:05.596Z,11.38
2022-10-25T08:44:47.023Z,9.95
2022-10-25T08:47:21.461Z,9.48
2022-10-25T08:49:57.151Z,13.10
2022-10-25T08:52:31.322Z,15.80
2022-10-25T08:55:05.521Z,10.10
2022-10-25T08:57:38.644Z,14.20
2022-10-25T09:00:17.436Z,12.32
2022-10-25T09:02:51.756Z,9.63
2022-10-25T09:05:37.389Z,10.50
2022-10-25T09:08:27.943Z,16.02
2022-10-25T09:11:06.588Z,14.27
2022-10-25T09:13:45.110Z,9.02
2022-10-25T09:16:18.524Z,14.18
2022-10-25T09:18:51.604Z,12.93
2022-10-25T09:21:23.785Z,12.75
2022-10-25T09:23:59.766Z,13.68
2022-10-25T09:26:42.171Z,10.48
2022-10-25T09:29:31.030Z,8.95
2022-10-25T09:32:04.277Z,13.63
2022-10-25T09:34:34.545Z,10.63
2022-10-25T09:37:11.776Z,13.40
2022-10-25T09:39:45.927Z,12.10
2022-10-25T09:42:21.593Z,13.57
2022-10-25T09:44:54.685Z,9.00
2022-10-25T09:47:34.333Z,11.82
2022-10-25T09:50:06.898Z,8.63
2022-10-25T09:52:46.437Z,14.07
2022-10-25T09:55:33.077Z,16.05
2022-10-25T09:58:03.179Z,9.80
2022-10-25T10:00:34.082Z,18.70
2022-10-25T10:03:04.666Z,12.55
2022-10-25T10:05:34.278Z,14.07
2022-10-25T10:08:03.375Z,10.05
2022-10-25T10:10:36.483Z,11.30
2022-10-25T10:13:09.257Z,6.35
2022-10-25T10:15:45.340Z,8.52
2022-10-25T10:18:28.336Z,7.40
2022-10-25T10:21:04.260Z,6.00
2022-10-25T10:23:36.854Z,12.55
2022-10-25T10:26:13.303Z,9.45
2022-10-25T10:28:47.213Z,7.80
2022-10-25T10:31:16.368Z,6.10
2022-10-25T10:33:50.939Z,6.53
2022-10-25T10:36:26.041Z,8.57
2022-10-25T10:38:55.852Z,9.73
2022-10-25T10:41:27.540Z,5.05
2022-10-25T10:44:12.069Z,7.05
2022-10-25T10:46:47.012Z,8.35
2022-10-25T10:49:18.197Z,6.45
2022-10-25T10:51:47.872Z,6.78
2022-10-25T10:54:25.704Z,3.90
2022-10-25T10:56:59.961Z,8.45
2022-10-25T10:59:39.495Z,9.20
2022-10-25T11:02:27.598Z,8.55
2022-10-25T11:04:58.519Z,4.05
2022-10-25T11:07:35.877Z,5.95
2022-10-25T11:10:29.368Z,6.10
2022-10-25T11:13:13.536Z,5.75
2022-10-25T11:16:09.644Z,5.32
2022-10-25T11:18:49.216Z,4.32
2022-10-25T11:21:48.714Z,6.38
2022-10-25T11:24:29.987Z,9.77
2022-10-25T11:27:07.643Z,10.15
2022-10-25T11:30:14.283Z,6.53
2022-10-25T11:33:12.636Z,4.18
2022-10-25T11:36:01.880Z,7.53
2022-10-25T11:38:43.058Z,3.75
2022-10-25T11:41:25.315Z,4.88
2022-10-25T11:44:06.809Z,4.55
2022-10-25T11:46:45.859Z,3.65
2022-10-25T11:49:45.941Z,3.17
2022-10-25T11:52:38.391Z,3.22
2022-10-25T11:55:21.405Z,4.07
2022-10-25T11:58:04.374Z,3.70
2022-10-25T12:00:46.967Z,9.38
2022-10-25T12:03:44.623Z,3.80
2022-10-25T12:06:21.126Z,5.90
2022-10-25T12:09:02.914Z,5.00
2022-10-25T12:11:35.309Z,8.20
2022-10-25T12:14:08.593Z,9.43
2022-10-25T12:16:39.419Z,5.65
2022-10-25T12:19:15.346Z,10.27
2022-10-25T12:21:48.823Z,8.38
2022-10-25T12:24:21.676Z,4.65
2022-10-25T12:26:54.820Z,12.25
2022-10-25T12:29:29.922Z,11.27
2022-10-25T12:32:02.388Z,5.97
2022-10-25T12:34:41.495Z,9.00
2022-10-25T12:37:15.868Z,7.88
2022-10-25T12:39:46.673Z,10.45
2022-10-25T12:42:21.503Z,11.15
2022-10-25T12:45:18.128Z,10.50
2022-10-25T12:48:01.033Z,9.85
2022-10-25T12:50:51.961Z,9.73
2022-10-25T12:53:49.113Z,13.75
2022-10-25T12:56:30.606Z,12.15
2022-10-25T13:01:59.642Z,7.65
2022-10-25T13:04:52.373Z,15.60
2022-10-25T13:07:23.274Z,10.45
2022-10-25T13:09:52.773Z,13.48
2022-10-25T13:12:26.420Z,7.90
2022-10-25T13:14:58.843Z,12.80
2022-10-25T13:18:01.935Z,16.85
2022-10-25T13:20:52.046Z,8.13
2022-10-25T13:24:00.706Z,7.65
2022-10-25T13:26:35.170Z,13.57
2022-10-25T13:29:25.412Z,15.23
2022-10-25T13:32:15.867Z,15.43
2022-10-25T13:34:44.888Z,15.10
2022-10-25T13:37:43.290Z,13.68
2022-10-25T13:40:27.725Z,11.10
2022-10-25T13:43:03.529Z,12.70
2022-10-25T13:45:40.674Z,10.88
2022-10-25T13:48:26.028Z,14.18
2022-10-25T13:50:56.707Z,10.48
2022-10-25T13:53:27.605Z,11.38
2022-10-25T13:56:04.382Z,11.95
2022-10-25T13:58:44.527Z,13.05
2022-10-25T14:01:56.806Z,12.80
2022-10-25T14:04:40.283Z,15.00
2022-10-25T14:07:44.904Z,15.90
2022-10-25T14:10:30.271Z,13.68
2022-10-25T14:13:12.484Z,13.07
2022-10-25T14:15:50.031Z,15.70
2022-10-25T14:18:23.269Z,13.82
2022-10-25T14:20:56.987Z,14.35
2022-10-25T14:23:32.526Z,13.05
2022-10-25T14:26:03.346Z,14.45
2022-10-25T14:28:35.241Z,6.60
2022-10-25T14:31:06.491Z,12.88
2022-10-25T14:33:40.877Z,19.00
2022-10-25T14:36:26.192Z,17.98
2022-10-25T14:38:57.095Z,13.02
2022-10-25T14:41:28.271Z,18.15
2022-10-25T14:43:58.247Z,11.02
2022-10-25T14:46:30.197Z,17.55
2022-10-25T14:49:01.117Z,13.48
2022-10-25T14:51:35.823Z,19.60
2022-10-25T14:54:07.135Z,15.00
2022-10-25T14:59:15.151Z,18.63
2022-10-25T15:01:53.547Z,14.27
2022-10-25T15:04:28.631Z,21.55
2022-10-25T15:06:59.670Z,14.75
2022-10-25T15:09:44.097Z,17.45
2022-10-25T15:12:19.253Z,17.98
2022-10-25T15:14:48.768Z,16.50
2022-10-25T15:17:24.909Z,20.50
2022-10-25T15:20:28.412Z,12.93
2022-10-25T15:23:05.751Z,20.05
2022-10-25T15:25:39.021Z,18.50
2022-10-25T15:28:12.249Z,19.17
2022-10-25T15:30:45.028Z,22.50
2022-10-25T15:33:17.825Z,20.60
2022-10-25T15:35:50.271Z,18.75
2022-10-25T15:38:20.946Z,19.52
2022-10-25T15:40:50.817Z,24.55
2022-10-25T15:43:19.863Z,20.48
2022-10-25T15:45:49.175Z,16.65
2022-10-25T15:48:21.246Z,22.55
2022-10-25T15:50:53.413Z,22.90
2022-10-25T15:53:24.792Z,29.35
2022-10-25T15:55:53.918Z,27.60
2022-10-25T15:58:22.907Z,26.55
2022-10-25T16:00:54.159Z,27.20
2022-10-25T16:05:53.590Z,28.73
2022-10-25T16:08:24.040Z,27.58
2022-10-25T16:10:53.413Z,25.63
2022-10-25T16:13:28.348Z,40.55
2022-10-25T16:15:57.642Z,33.47
2022-10-25T16:18:26.649Z,30.80
2022-10-25T16:20:57.949Z,27.30
2022-10-25T16:25:57.439Z,32.80
2022-10-25T16:30:55.450Z,37.50
2022-10-25T16:33:24.492Z,35.58
2022-10-25T16:35:53.420Z,37.75
2022-10-25T16:38:22.376Z,35.90
2022-10-25T16:40:52.889Z,40.95
2022-10-25T16:43:22.185Z,41.33
2022-10-25T16:45:51.215Z,38.35
2022-10-25T16:48:20.242Z,35.28
2022-10-25T16:50:49.296Z,31.92
2022-10-25T16:53:18.381Z,37.30
2022-10-25T16:55:47.501Z,32.60
2022-10-25T16:58:17.949Z,45.90
2022-10-25T17:00:47.200Z,34.13
2022-10-25T17:03:16.215Z,35.40
2022-10-25T17:05:45.184Z,38.20
2022-10-25T17:08:14.188Z,41.97
2022-10-25T17:10:46.003Z,35.50
2022-10-25T17:13:16.738Z,38.65
2022-10-25T17:15:47.476Z,36.88
2022-10-25T17:18:20.910Z,34.77
2022-10-25T17:20:50.652Z,48.88
2022-10-25T17:23:19.652Z,38.10
2022-10-25T17:25:58.581Z,27.92
2022-10-25T17:28:27.560Z,30.00
2022-10-25T17:30:58.614Z,33.20
2022-10-25T17:33:27.958Z,36.00
2022-10-25T17:35:56.974Z,44.00
2022-10-25T17:38:26.772Z,36.83
2022-10-25T17:40:55.887Z,30.27
2022-10-25T17:43:24.947Z,39.28
2022-10-25T17:45:53.936Z,36.72
2022-10-25T17:48:24.291Z,40.72
2022-10-25T17:50:53.514Z,44.47
2022-10-25T17:53:22.726Z,41.40
2022-10-25T17:55:51.889Z,36.80
2022-10-25T17:58:21.351Z,32.17
2022-10-25T18:00:51.136Z,41.58
2022-10-25T18:03:20.525Z,44.22
2022-10-25T18:05:51.149Z,46.47
2022-10-25T18:08:20.376Z,48.42
2022-10-25T18:10:49.473Z,46.53
2022-10-25T18:13:21.716Z,41.10
2022-10-25T18:15:50.904Z,42.20
2022-10-25T18:18:20.348Z,41.90
2022-10-25T18:20:51.656Z,33.38
2022-10-25T18:23:20.951Z,53.35
2022-10-25T18:25:53.834Z,35.72
2022-10-25T18:28:22.829Z,37.63
2022-10-25T18:30:51.933Z,40.97
2022-10-25T18:33:23.976Z,33.75
2022-10-25T18:35:59.926Z,39.35
2022-10-25T18:38:29.502Z,43.50
2022-10-25T18:40:58.890Z,40.47
2022-10-25T18:43:28.477Z,38.83
2022-10-25T18:45:58.605Z,39.47
2022-10-25T18:48:28.408Z,38.65
2022-10-25T18:51:04.397Z,39.70
2022-10-25T18:53:35.681Z,37.75
2022-10-25T18:56:04.873Z,36.88
2022-10-25T18:58:34.032Z,31.02
2022-10-25T19:01:08.253Z,35.25
2022-10-25T19:03:38.031Z,28.08
2022-10-25T19:06:09.176Z,34.97
2022-10-25T19:08:38.826Z,30.45
2022-10-25T19:11:09.719Z,33.40
2022-10-25T19:13:39.214Z,30.52
2022-10-25T19:16:10.083Z,37.47
2022-10-25T19:18:39.573Z,19.63
2022-10-25T19:21:12.121Z,34.00
2022-10-25T19:23:42.803Z,29.10
2022-10-25T19:26:14.630Z,34.35
2022-10-25T19:28:44.587Z,32.17
2022-10-25T19:31:15.790Z,29.23
2022-10-25T19:33:47.292Z,30.42
2022-10-25T19:36:19.038Z,33.03
2022-10-25T19:38:49.708Z,34.45
2022-10-25T19:41:22.875Z,36.17
2022-10-25T19:43:53.002Z,38.95
2022-10-25T19:46:22.289Z,45.13
2022-10-25T19:48:51.375Z,43.83
2022-10-25T19:51:22.258Z,46.63
2022-10-25T19:53:51.725Z,41.58
2022-10-25T19:56:22.540Z,43.25
2022-10-25T19:58:53.252Z,45.20
2022-10-25T20:01:25.051Z,38.10
2022-10-25T20:03:55.751Z,43.50
2022-10-25T20:06:28.629Z,33.90
2022-10-25T20:08:58.963Z,44.17
2022-10-25T20:11:29.358Z,42.78
2022-10-25T20:13:59.887Z,40.23
2022-10-25T20:16:30.286Z,47.70
2022-10-25T20:19:01.785Z,48.70
2022-10-25T20:21:34.802Z,38.85
2022-10-25T20:24:07.365Z,38.85
2022-10-25T20:26:38.363Z,41.95
2022-10-25T20:29:09.378Z,46.67
2022-10-25T20:31:39.500Z,54.55
2022-10-25T20:34:08.717Z,30.83
2022-10-25T20:36:39.974Z,45.25
2022-10-25T20:39:09.097Z,46.00
2022-10-25T20:41:38.292Z,41.70
2022-10-25T20:44:08.731Z,42.45
2022-10-25T20:46:38.440Z,47.05
2022-10-25T20:49:08.713Z,45.60
2022-10-25T20:51:39.794Z,45.07
2022-10-25T20:54:10.318Z,46.72
2022-10-25T20:56:39.952Z,50.50
2022-10-25T20:59:09.441Z,60.70
2022-10-25T21:01:39.039Z,50.95
2022-10-25T21:04:09.920Z,46.80
2022-10-25T21:06:40.557Z,46.50
2022-10-25T21:09:09.633Z,51.38
2022-10-25T21:11:40.969Z,44.40
2022-10-25T21:16:40.680Z,36.40
2022-10-25T21:19:09.758Z,53.05
2022-10-25T21:21:40.168Z,51.97
2022-10-25T21:24:11.369Z,51.03
2022-10-25T21:26:40.372Z,56.85
2022-10-25T21:29:09.478Z,46.65
2022-10-25T21:31:38.479Z,50.85
2022-10-25T21:34:07.540Z,49.67
2022-10-25T21:36:36.562Z,37.67
2022-10-25T21:39:07.121Z,63.85
2022-10-25T21:41:36.153Z,51.58
2022-10-25T21:44:06.555Z,63.13
2022-10-25T21:46:35.542Z,61.47
2022-10-25T21:49:04.621Z,64.18
2022-10-25T21:51:33.592Z,59.78
2022-10-25T21:54:04.244Z,61.65
2022-10-25T21:56:34.768Z,57.85
2022-10-25T21:59:03.786Z,72.27
2022-10-25T22:01:33.024Z,58.35
2022-10-25T22:04:02.234Z,61.25
2022-10-25T22:06:31.226Z,74.47
2022-10-25T22:09:00.190Z,41.97
2022-10-25T22:11:30.766Z,52.63
2022-10-25T22:14:03.047Z,58.33
2022-10-25T22:16:33.284Z,46.47
2022-10-25T22:19:04.766Z,47.80
2022-10-25T22:21:36.452Z,39.05
2022-10-25T22:24:06.570Z,38.92
2022-10-25T22:26:36.361Z,35.55
2022-10-25T22:29:06.927Z,27.58
2022-10-25T22:31:36.337Z,32.13
2022-10-25T22:34:06.917Z,30.38
2022-10-25T22:36:38.079Z,36.00
2022-10-25T22:39:08.066Z,23.55
2022-10-25T22:41:37.507Z,19.25
2022-10-25T22:44:08.020Z,23.08
2022-10-25T22:46:37.651Z,16.13
2022-10-25T22:49:08.691Z,19.73
2022-10-25T22:51:39.090Z,19.83
2022-10-25T22:54:08.944Z,16.95
2022-10-25T22:56:38.115Z,20.55
2022-10-25T22:59:08.621Z,21.67
2022-10-25T23:01:39.173Z,19.00
2022-10-25T23:04:09.900Z,13.18
2022-10-25T23:06:40.602Z,14.27
2022-10-25T23:09:11.812Z,17.42
2022-10-25T23:11:42.224Z,30.38
2022-10-25T23:14:16.381Z,22.17
2022-10-25T23:16:46.880Z,17.88
2022-10-25T23:19:16.047Z,17.75
2022-10-25T23:21:45.028Z,16.73
2022-10-25T23:24:14.225Z,16.67
2022-10-25T23:26:43.445Z,19.95
2022-10-25T23:29:14.397Z,19.10
2022-10-25T23:31:43.676Z,24.17
2022-10-25T23:34:12.932Z,19.45
2022-10-25T23:36:42.106Z,25.63
2022-10-25T23:39:12.492Z,21.42
2022-10-25T23:41:41.500Z,25.73
2022-10-25T23:44:10.614Z,28.75
2022-10-25T23:46:41.067Z,13.05
2022-10-25T23:49:10.046Z,15.33
2022-10-25T23:51:39.144Z,18.30
2022-10-25T23:54:09.719Z,23.13
2022-10-25T23:56:39.341Z,13.13
2022-10-25T23:59:08.609Z,18.30
